TimeEDT,TemperatureF,Dew PointF,Humidity,Sea Level PressureIn,VisibilityMPH,Wind Direction,Wind SpeedMPH,Gust SpeedMPH,PrecipitationIn,Events,Conditions,WindDirDegrees,DateUTC
12:15 AM,64.4,64.4,100,30.23,3.0,NE,5.8,-,0.00,,Overcast,50,2013-04-26 04:15:00
12:35 AM,64.4,64.4,100,30.23,3.0,ENE,9.2,-,0.00,,Overcast,60,2013-04-26 04:35:00
12:55 AM,64.4,62.6,94,30.24,4.0,NE,9.2,-,0.00,,Overcast,50,2013-04-26 04:55:00
1:15 AM,64.4,62.6,94,30.23,4.0,NE,6.9,-,0.00,,Overcast,40,2013-04-26 05:15:00
1:35 AM,64.4,62.6,94,30.24,4.0,NE,8.1,-,0.00,,Overcast,40,2013-04-26 05:35:00
1:55 AM,64.4,62.6,94,30.23,5.0,NNE,6.9,-,0.00,,Overcast,30,2013-04-26 05:55:00
2:15 AM,64.4,62.6,94,30.23,5.0,NE,6.9,-,0.00,,Overcast,50,2013-04-26 06:15:00
2:35 AM,62.6,62.6,100,30.23,7.0,NE,8.1,-,0.00,,Overcast,40,2013-04-26 06:35:00
2:55 AM,62.6,60.8,94,30.23,6.0,NE,6.9,-,0.00,,Overcast,50,2013-04-26 06:55:00
3:15 AM,62.6,60.8,94,30.23,6.0,NNE,5.8,-,0.00,,Overcast,30,2013-04-26 07:15:00
3:35 AM,62.6,60.8,94,30.23,5.0,NNE,6.9,-,0.00,,Overcast,30,2013-04-26 07:35:00
3:55 AM,62.6,60.8,94,30.24,6.0,NE,6.9,-,0.00,,Overcast,40,2013-04-26 07:55:00
4:15 AM,62.6,60.8,94,30.24,7.0,NE,4.6,-,0.00,,Overcast,50,2013-04-26 08:15:00
4:35 AM,62.6,60.8,94,30.24,5.0,NE,6.9,-,0.00,,Overcast,50,2013-04-26 08:35:00
4:55 AM,62.6,60.8,94,30.25,7.0,ENE,8.1,-,0.00,,Scattered Clouds,60,2013-04-26 08:55:00
5:15 AM,62.6,60.8,94,30.25,7.0,ENE,3.5,-,0.00,,Mostly Cloudy,60,2013-04-26 09:15:00
5:35 AM,60.8,59.0,94,30.26,7.0,NE,8.1,-,0.00,,Overcast,50,2013-04-26 09:35:00
5:55 AM,60.8,59.0,94,30.26,7.0,NNE,5.8,-,0.00,,Overcast,20,2013-04-26 09:55:00
6:15 AM,62.6,59.0,88,30.27,5.0,NE,5.8,-,0.00,,Overcast,50,2013-04-26 10:15:00
6:35 AM,60.8,59.0,94,30.27,5.0,ENE,6.9,-,0.00,,Overcast,60,2013-04-26 10:35:00
6:55 AM,60.8,59.0,94,30.29,5.0,NE,6.9,-,0.00,,Overcast,40,2013-04-26 10:55:00
7:15 AM,60.8,57.2,88,30.30,4.0,NE,10.4,-,0.00,,Overcast,40,2013-04-26 11:15:00
7:35 AM,60.8,57.2,88,30.31,4.0,NE,8.1,-,0.00,,Overcast,50,2013-04-26 11:35:00
7:55 AM,60.8,59.0,94,30.32,4.0,NE,5.8,-,0.00,,Overcast,40,2013-04-26 11:55:00
8:15 AM,60.8,57.2,88,30.33,5.0,NNE,8.1,-,0.00,,Overcast,30,2013-04-26 12:15:00
8:35 AM,62.6,59.0,88,30.34,5.0,NE,9.2,-,0.00,,Overcast,40,2013-04-26 12:35:00
8:55 AM,62.6,59.0,88,30.35,6.0,NNE,8.1,-,0.00,,Mostly Cloudy,20,2013-04-26 12:55:00
9:15 AM,64.4,59.0,83,30.35,6.0,NNE,9.2,-,0.00,,Haze,30,2013-04-26 13:15:00
9:35 AM,64.4,59.0,83,30.35,7.0,NE,10.4,-,0.00,,Partly Cloudy,40,2013-04-26 13:35:00
9:55 AM,66.2,59.0,78,30.36,9.0,NE,9.2,-,0.00,,Clear,40,2013-04-26 13:55:00
10:15 AM,68.0,57.2,68,30.37,10.0,NE,9.2,-,0.00,,Clear,50,2013-04-26 14:15:00
10:35 AM,69.8,57.2,64,30.37,10.0,ENE,12.7,18.4,0.00,,Clear,60,2013-04-26 14:35:00
10:55 AM,69.8,55.4,60,30.38,10.0,NE,16.1,-,0.00,,Clear,40,2013-04-26 14:55:00
11:15 AM,69.8,55.4,60,30.38,10.0,ENE,15.0,21.9,0.00,,Clear,70,2013-04-26 15:15:00
11:35 AM,69.8,53.6,56,30.39,10.0,NE,16.1,23.0,0.00,,Clear,50,2013-04-26 15:35:00
11:55 AM,71.6,53.6,53,30.39,10.0,NE,15.0,-,0.00,,Clear,50,2013-04-26 15:55:00
12:15 PM,71.6,51.8,50,30.38,10.0,NE,16.1,19.6,0.00,,Clear,50,2013-04-26 16:15:00
12:35 PM,71.6,44.6,38,30.37,10.0,ENE,16.1,24.2,0.01,,Clear,70,2013-04-26 16:35:00
12:55 PM,71.6,42.8,35,30.37,10.0,ENE,18.4,27.6,0.01,,Clear,60,2013-04-26 16:55:00
1:15 PM,71.6,44.6,38,30.36,10.0,ENE,19.6,23.0,0.00,,Clear,70,2013-04-26 17:15:00
1:35 PM,71.6,48.2,43,30.36,10.0,East,17.3,20.7,0.00,,Clear,80,2013-04-26 17:35:00
1:55 PM,71.6,48.2,43,30.36,10.0,East,12.7,25.3,0.00,,Clear,80,2013-04-26 17:55:00
2:15 PM,71.6,46.4,41,30.36,10.0,East,15.0,20.7,0.00,,Clear,80,2013-04-26 18:15:00
2:35 PM,71.6,46.4,41,30.36,10.0,East,15.0,21.9,0.00,,Clear,80,2013-04-26 18:35:00
2:55 PM,71.6,46.4,41,30.36,10.0,ENE,17.3,23.0,0.00,,Clear,70,2013-04-26 18:55:00
3:15 PM,71.6,46.4,41,30.36,10.0,ENE,13.8,21.9,0.00,,Clear,70,2013-04-26 19:15:00
3:35 PM,71.6,46.4,41,30.35,10.0,ENE,11.5,-,0.00,,Clear,60,2013-04-26 19:35:00
3:55 PM,71.6,42.8,35,30.34,10.0,NE,16.1,-,0.00,,Clear,50,2013-04-26 19:55:00
4:15 PM,71.6,46.4,41,30.34,10.0,ENE,12.7,18.4,0.00,,Clear,70,2013-04-26 20:15:00
4:35 PM,71.6,44.6,38,30.33,10.0,East,15.0,-,0.00,,Clear,90,2013-04-26 20:35:00
4:55 PM,71.6,46.4,41,30.33,10.0,East,16.1,-,0.00,,Clear,80,2013-04-26 20:55:00
5:15 PM,69.8,46.4,43,30.34,10.0,East,15.0,-,0.00,,Clear,80,2013-04-26 21:15:00
5:35 PM,69.8,46.4,43,30.34,10.0,East,15.0,19.6,0.00,,Clear,80,2013-04-26 21:35:00
5:55 PM,68.0,46.4,46,30.34,10.0,East,13.8,-,0.00,,Clear,80,2013-04-26 21:55:00
6:15 PM,66.2,48.2,52,30.33,10.0,ENE,15.0,-,0.00,,Clear,70,2013-04-26 22:15:00
6:35 PM,66.2,50.0,56,30.33,10.0,ENE,13.8,-,0.00,,Clear,70,2013-04-26 22:35:00
6:55 PM,66.2,51.8,60,30.33,10.0,ENE,11.5,-,0.00,,Clear,60,2013-04-26 22:55:00
7:15 PM,64.4,51.8,64,30.34,10.0,ENE,12.7,-,0.00,,Clear,70,2013-04-26 23:15:00
7:35 PM,64.4,53.6,68,30.34,10.0,ENE,9.2,-,0.00,,Clear,70,2013-04-26 23:35:00
7:55 PM,62.6,53.6,72,30.35,10.0,ENE,8.1,-,0.00,,Clear,70,2013-04-26 23:55:00
8:15 PM,62.6,53.6,72,30.36,10.0,ENE,5.8,-,0.00,,Clear,60,2013-04-27 00:15:00
8:35 PM,60.8,53.6,77,30.36,10.0,ENE,4.6,-,0.00,,Clear,60,2013-04-27 00:35:00
8:55 PM,60.8,55.4,82,30.36,10.0,Calm,Calm,-,0.00,,Clear,0,2013-04-27 00:55:00
9:15 PM,60.8,55.4,82,30.37,10.0,East,5.8,-,0.00,,Clear,80,2013-04-27 01:15:00
9:35 PM,62.6,53.6,72,30.37,10.0,East,6.9,-,0.00,,Clear,90,2013-04-27 01:35:00
9:55 PM,60.8,53.6,77,30.37,10.0,ENE,3.5,-,0.00,,Clear,60,2013-04-27 01:55:00
10:15 PM,60.8,53.6,77,30.37,10.0,Calm,Calm,-,0.00,,Clear,0,2013-04-27 02:15:00
10:35 PM,60.8,53.6,77,30.37,10.0,Calm,Calm,-,0.00,,Clear,0,2013-04-27 02:35:00
10:55 PM,57.2,53.6,88,30.37,10.0,Calm,Calm,-,0.00,,Clear,0,2013-04-27 02:55:00
11:15 PM,57.2,53.6,88,30.35,10.0,Calm,Calm,-,0.00,,Clear,0,2013-04-27 03:15:00
11:35 PM,59.0,53.6,82,30.34,10.0,Calm,Calm,-,0.00,,Clear,0,2013-04-27 03:35:00
11:55 PM,59.0,53.6,82,30.33,10.0,East,5.8,-,0.00,,Clear,80,2013-04-27 03:55:00